Time;durP1;ratioP1;P1;durP2;ratioP2;P2;SDS_P1;SDS_P2;PMS_P1;PMS_P2;Temp;Humidity;BMP_temperature;BMP_pressure;BME280_temperature;BME280_humidity;BME280_pressure;Samples;Min_cycle;Max_cycle;Signal;HPM_P1;HPM_P2
2022/06/29 00:01:08;;;;;;;6.10;2.83;;;;;;;23.05;84.16;100344.53;5531716;32;33983;-67
2022/06/29 00:04:11;;;;;;;3.30;2.60;;;;;;;22.95;84.69;100340.62;5531672;32;34549;-68
2022/06/29 00:07:14;;;;;;;6.03;3.08;;;;;;;22.86;84.41;100335.91;5531055;32;34577;-67
2022/06/29 00:10:18;;;;;;;5.57;2.67;;;;;;;22.90;84.91;100337.84;5531893;32;34214;-68
2022/06/29 00:13:23;;;;;;;5.10;2.55;;;;;;;22.81;84.92;100325.81;5531686;32;34745;-68
2022/06/29 00:16:25;;;;;;;6.68;2.55;;;;;;;22.68;85.41;100331.56;5531544;32;34002;-68
2022/06/29 00:19:31;;;;;;;4.80;2.72;;;;;;;22.54;85.80;100333.81;5531651;32;34146;-68
2022/06/29 00:22:35;;;;;;;4.95;3.10;;;;;;;22.56;86.24;100328.13;5531574;32;34085;-68
2022/06/29 00:25:39;;;;;;;6.47;2.90;;;;;;;22.49;87.17;100322.09;5530835;32;34332;-68
2022/06/29 00:28:42;;;;;;;4.18;2.53;;;;;;;22.50;86.35;100329.13;5531568;32;35190;-68
2022/06/29 00:31:45;;;;;;;5.30;2.83;;;;;;;22.37;87.09;100324.03;5531617;32;34006;-68
2022/06/29 00:34:48;;;;;;;5.30;2.87;;;;;;;22.35;87.38;100316.19;5530546;32;33171;-67
2022/06/29 00:37:52;;;;;;;5.68;2.90;;;;;;;22.46;86.83;100323.38;5531849;32;34625;-68
2022/06/29 00:40:56;;;;;;;4.12;2.75;;;;;;;22.60;85.47;100326.59;5531538;32;34589;-68
2022/06/29 00:43:58;;;;;;;3.25;2.67;;;;;;;22.41;86.99;100322.50;5531397;32;34603;-68
2022/06/29 00:47:04;;;;;;;3.97;2.83;;;;;;;22.29;87.40;100322.56;5530683;32;34028;-68
2022/06/29 00:50:07;;;;;;;4.30;2.80;;;;;;;22.29;87.71;100325.28;5531370;32;34274;-68
2022/06/29 00:53:14;;;;;;;4.78;2.85;;;;;;;22.27;87.56;100315.78;5531435;32;33973;-68
2022/06/29 00:56:19;;;;;;;6.45;2.70;;;;;;;22.24;88.25;100310.88;5531308;32;35347;-68
2022/06/29 00:59:25;;;;;;;6.85;2.60;;;;;;;22.24;88.13;100305.47;5530755;32;34096;-68
2022/06/29 01:02:32;;;;;;;4.70;2.50;;;;;;;22.13;88.81;100298.25;5531363;32;34652;-68
2022/06/29 01:05:35;;;;;;;3.60;2.62;;;;;;;22.14;89.72;100305.28;5531188;32;34736;-68
2022/06/29 01:08:37;;;;;;;6.35;2.92;;;;;;;22.15;90.00;100305.06;5530255;32;33754;-68
2022/06/29 01:11:40;;;;;;;6.62;2.75;;;;;;;22.21;90.34;100308.66;5531080;32;33948;-68
2022/06/29 01:14:44;;;;;;;7.78;2.95;;;;;;;22.22;89.88;100294.87;5531222;32;34262;-68
2022/06/29 01:17:48;;;;;;;5.45;2.58;;;;;;;22.14;90.62;100291.78;5531101;32;33951;-68
2022/06/29 01:20:50;;;;;;;7.18;2.72;;;;;;;22.09;90.81;100292.53;5531132;32;34077;-68
2022/06/29 01:23:53;;;;;;;3.95;3.40;;;;;;;22.12;91.01;100300.16;5531236;32;34581;-68
2022/06/29 01:26:56;;;;;;;5.90;2.80;;;;;;;22.21;90.08;100311.37;5530312;32;34091;-68
2022/06/29 01:29:59;;;;;;;3.50;2.60;;;;;;;22.23;90.15;100307.34;5530942;32;35332;-68
2022/06/29 01:33:01;;;;;;;6.25;3.10;;;;;;;22.13;91.08;100303.66;5531002;32;34755;-68
2022/06/29 01:36:05;;;;;;;6.57;2.90;;;;;;;22.02;92.16;100308.09;5530357;32;34029;-68
2022/06/29 01:39:07;;;;;;;5.70;3.40;;;;;;;22.04;92.85;100301.34;5530951;32;33927;-68
2022/06/29 01:42:16;;;;;;;5.85;3.33;;;;;;;22.07;92.79;100294.66;5530151;32;34029;-68
2022/06/29 01:45:18;;;;;;;4.53;2.95;;;;;;;22.02;93.28;100302.69;5530116;32;34261;-68
2022/06/29 01:48:22;;;;;;;5.55;2.80;;;;;;;21.99;93.30;100301.28;5530895;32;34098;-68
2022/06/29 01:51:24;;;;;;;7.60;2.97;;;;;;;21.98;93.04;100306.91;5530679;32;34006;-67
2022/06/29 01:54:28;;;;;;;5.87;3.53;;;;;;;21.95;93.08;100300.12;5530805;32;34322;-67
2022/06/29 01:57:31;;;;;;;8.18;3.03;;;;;;;21.92;93.71;100294.37;5530746;32;34057;-68
2022/06/29 02:00:34;;;;;;;8.98;3.45;;;;;;;21.89;93.72;100292.13;5529817;32;32843;-67
2022/06/29 02:03:36;;;;;;;5.40;3.20;;;;;;;21.85;93.99;100296.41;5531062;32;34582;-67
2022/06/29 02:06:39;;;;;;;3.97;2.72;;;;;;;21.84;94.25;100283.94;5530609;32;33909;-67
2022/06/29 02:09:42;;;;;;;7.25;2.97;;;;;;;21.80;94.12;100288.19;5530852;32;35351;-67
2022/06/29 02:12:49;;;;;;;7.20;2.87;;;;;;;21.79;93.52;100289.25;5530427;32;33991;-68
2022/06/29 02:15:53;;;;;;;4.45;2.95;;;;;;;21.73;93.57;100298.34;5530917;32;33849;-68
2022/06/29 02:18:56;;;;;;;6.32;2.87;;;;;;;21.69;93.38;100287.19;5530463;32;34728;-68
2022/06/29 02:21:59;;;;;;;3.58;2.62;;;;;;;21.68;93.13;100288.28;5530404;32;33931;-68
2022/06/29 02:25:02;;;;;;;5.50;2.80;;;;;;;21.81;92.82;100287.97;5529643;32;34402;-67
2022/06/29 02:28:05;;;;;;;5.35;3.10;;;;;;;21.78;92.65;100288.47;5530147;32;34187;-68
2022/06/29 02:34:46;;;;;;;4.45;2.90;;;;;;;21.71;93.71;100284.25;5530113;32;34004;-68
2022/06/29 02:37:50;;;;;;;5.55;3.08;;;;;;;21.71;94.07;100284.25;5530157;32;33995;-67
2022/06/29 02:40:53;;;;;;;5.03;3.45;;;;;;;21.62;96.02;100292.75;5532696;32;34169;-67
2022/06/29 02:43:56;;;;;;;6.28;3.45;;;;;;;21.56;97.31;100287.50;5532602;32;34764;-68
2022/06/29 02:46:58;;;;;;;5.32;3.75;;;;;;;21.56;97.45;100285.63;5532482;32;34816;-67
2022/06/29 02:50:02;;;;;;;5.72;3.97;;;;;;;21.70;95.68;100288.84;5532373;32;34689;-68
2022/06/29 02:53:05;;;;;;;6.53;3.50;;;;;;;21.57;96.11;100283.75;5531669;32;33812;-68
2022/06/29 02:56:08;;;;;;;6.85;3.70;;;;;;;21.48;97.05;100288.72;5532471;32;35226;-68
2022/06/29 02:59:11;;;;;;;4.85;3.30;;;;;;;21.41;97.00;100287.22;5532376;32;34451;-67
2022/06/29 03:02:17;;;;;;;8.90;3.40;;;;;;;21.27;96.82;100283.97;5532303;32;34065;-67
2022/06/29 03:05:20;;;;;;;4.97;3.10;;;;;;;21.24;97.27;100289.88;5532505;32;34001;-67
2022/06/29 03:08:24;;;;;;;5.10;3.47;;;;;;;21.38;97.12;100285.00;5531719;32;34164;-66
2022/06/29 03:11:26;;;;;;;5.45;3.10;;;;;;;21.35;95.98;100285.50;5531733;32;34085;-66
2022/06/29 03:14:29;;;;;;;4.97;2.92;;;;;;;21.36;95.49;100284.41;5532239;32;33904;-66
2022/06/29 03:17:32;;;;;;;4.62;3.40;;;;;;;21.49;94.43;100282.28;5532207;32;34068;-67
2022/06/29 03:20:35;;;;;;;5.87;3.37;;;;;;;21.49;94.39;100292.25;5532191;32;34732;-67
2022/06/29 03:23:38;;;;;;;4.12;3.05;;;;;;;21.41;94.62;100293.44;5532090;32;33972;-67
2022/06/29 03:26:41;;;;;;;4.85;3.55;;;;;;;21.41;94.09;100300.69;5532006;32;34564;-67
2022/06/29 03:29:44;;;;;;;5.20;3.25;;;;;;;21.51;92.97;100304.44;5531983;32;34235;-67
2022/06/29 03:32:46;;;;;;;5.10;3.12;;;;;;;21.52;92.91;100297.97;5532079;32;34010;-66
2022/06/29 03:35:49;;;;;;;4.87;3.40;;;;;;;21.59;92.42;100290.53;5532073;32;33824;-67
2022/06/29 03:38:52;;;;;;;3.65;3.00;;;;;;;21.65;91.76;100297.66;5532005;32;34380;-67
2022/06/29 03:41:54;;;;;;;3.85;3.05;;;;;;;21.71;90.43;100297.75;5531939;32;34061;-67
2022/06/29 03:44:57;;;;;;;4.93;3.03;;;;;;;21.79;89.83;100308.97;5532091;32;33941;-67
2022/06/29 03:48:00;;;;;;;3.70;3.08;;;;;;;21.87;89.21;100303.22;5531880;32;34009;-67
2022/06/29 03:51:03;;;;;;;5.25;3.00;;;;;;;21.92;88.94;100305.19;5530860;32;34456;-67
2022/06/29 03:54:05;;;;;;;4.72;3.05;;;;;;;22.03;89.47;100307.00;5531834;32;33838;-67
2022/06/29 03:57:08;;;;;;;5.18;3.00;;;;;;;22.23;87.45;100304.63;5531795;32;33877;-67
2022/06/29 04:00:12;;;;;;;6.10;3.40;;;;;;;22.25;86.68;100304.41;5531650;32;34419;-68
2022/06/29 04:03:16;;;;;;;6.72;3.10;;;;;;;22.23;85.80;100310.03;5531860;32;33976;-67
2022/06/29 04:06:18;;;;;;;4.75;3.40;;;;;;;22.31;85.45;100298.03;5531671;32;34160;-67
2022/06/29 04:09:22;;;;;;;6.72;3.22;;;;;;;22.50;83.91;100302.91;5531885;32;34644;-67
2022/06/29 04:12:24;;;;;;;4.55;2.95;;;;;;;22.50;83.30;100305.63;5530932;32;33841;-67
2022/06/29 04:15:27;;;;;;;3.97;3.12;;;;;;;22.59;82.78;100307.91;5531531;32;34625;-66
2022/06/29 04:18:30;;;;;;;6.15;3.15;;;;;;;22.64;81.64;100300.69;5531537;32;33979;-67
2022/06/29 04:21:32;;;;;;;4.78;2.97;;;;;;;22.74;81.36;100300.88;5531668;32;33955;-66
2022/06/29 04:24:35;;;;;;;5.55;2.85;;;;;;;22.85;80.42;100297.22;5531650;32;35178;-67
2022/06/29 04:27:39;;;;;;;6.60;3.15;;;;;;;22.93;79.32;100293.25;5530724;32;33989;-67
2022/06/29 04:30:43;;;;;;;6.62;3.33;;;;;;;23.10;78.78;100298.59;5518075;32;33537;-67
2022/06/29 04:33:46;;;;;;;6.15;3.05;;;;;;;23.14;78.57;100305.19;5530832;32;34074;-67
2022/06/29 04:36:48;;;;;;;3.55;2.70;;;;;;;23.19;78.37;100306.03;5531859;32;33908;-67
2022/06/29 04:39:51;;;;;;;4.75;3.10;;;;;;;23.33;77.20;100306.50;5531394;32;34120;-67
2022/06/29 04:42:54;;;;;;;6.70;3.40;;;;;;;23.34;76.31;100299.97;5531887;32;35282;-66
2022/06/29 04:49:18;;;;;;;6.20;3.00;;;;;;;23.52;76.37;100307.00;5531377;32;33920;-66
2022/06/29 04:52:24;;;;;;;4.50;3.10;;;;;;;23.56;75.18;100305.41;5531292;32;34542;-66
2022/06/29 04:55:29;;;;;;;4.82;3.10;;;;;;;23.71;74.59;100305.56;5531163;32;33953;-66
2022/06/29 04:58:32;;;;;;;6.43;3.28;;;;;;;23.69;73.87;100308.53;5531323;32;34039;-66
2022/06/29 05:01:34;;;;;;;5.40;3.30;;;;;;;23.74;73.14;100308.59;5529738;32;34156;-66
2022/06/29 05:04:37;;;;;;;7.55;3.58;;;;;;;23.78;73.51;100312.41;5530848;32;34066;-66
2022/06/29 05:07:40;;;;;;;5.32;3.20;;;;;;;23.85;73.31;100308.69;5531075;32;33948;-66
2022/06/29 05:10:43;;;;;;;8.80;3.60;;;;;;;23.86;72.38;100307.63;5530526;32;33235;-66
2022/06/29 05:13:46;;;;;;;7.30;3.37;;;;;;;23.87;72.86;100309.25;5530075;32;33112;-66
2022/06/29 05:16:49;;;;;;;6.80;3.47;;;;;;;23.99;73.21;100310.72;5530375;32;34628;-67
2022/06/29 05:19:51;;;;;;;4.47;3.35;;;;;;;24.08;73.44;100325.44;5531043;32;33933;-66
2022/06/29 05:22:54;;;;;;;6.37;3.60;;;;;;;24.15;73.32;100326.06;5530875;32;34708;-66
2022/06/29 05:25:57;;;;;;;4.00;3.30;;;;;;;24.21;72.65;100319.59;5531054;32;34623;-66
2022/06/29 05:29:00;;;;;;;19.73;3.53;;;;;;;24.25;72.38;100325.34;5531049;32;34347;-66
2022/06/29 05:32:03;;;;;;;7.00;3.40;;;;;;;24.31;71.79;100315.34;5530671;32;34889;-66
2022/06/29 05:35:07;;;;;;;4.75;3.45;;;;;;;24.39;70.69;100314.87;5529836;32;33961;-66
2022/06/29 05:38:16;;;;;;;4.60;3.67;;;;;;;24.57;71.33;100319.88;5530853;32;33973;-67
2022/06/29 05:41:19;;;;;;;9.85;3.85;;;;;;;24.77;69.28;100319.19;5529943;32;33845;-66
2022/06/29 05:44:22;;;;;;;7.95;3.75;;;;;;;24.94;68.85;100312.53;5530807;32;34316;-66
2022/06/29 05:47:25;;;;;;;7.12;3.50;;;;;;;24.85;68.12;100314.06;5530680;32;34022;-66
2022/06/29 05:50:28;;;;;;;9.52;3.42;;;;;;;24.87;68.64;100313.84;5530559;32;34071;-66
2022/06/29 05:53:32;;;;;;;10.43;3.60;;;;;;;25.01;67.76;100304.97;5530406;32;34706;-66
2022/06/29 05:56:35;;;;;;;7.35;3.45;;;;;;;25.07;67.58;100308.53;5530531;32;33904;-66
2022/06/29 05:59:38;;;;;;;7.20;3.72;;;;;;;25.13;68.06;100296.59;5529841;32;34170;-66
2022/06/29 06:02:41;;;;;;;6.95;3.72;;;;;;;25.19;67.59;100292.00;5530602;32;34841;-67
2022/06/29 06:05:45;;;;;;;4.75;3.35;;;;;;;25.21;66.72;100295.28;5530446;32;34573;-66
2022/06/29 06:08:48;;;;;;;5.60;3.60;;;;;;;25.32;66.54;100297.75;5530315;32;34096;-67
2022/06/29 06:11:51;;;;;;;5.45;3.40;;;;;;;25.41;66.65;100298.06;5529325;32;33946;-67
2022/06/29 06:14:53;;;;;;;7.90;4.40;;;;;;;25.65;66.54;100293.00;5529459;32;34614;-67
2022/06/29 06:17:56;;;;;;;12.75;4.32;;;;;;;25.90;66.68;100296.53;5530321;32;34312;-67
2022/06/29 06:20:59;;;;;;;13.25;4.15;;;;;;;25.96;63.71;100292.75;5530372;32;35008;-67
2022/06/29 06:24:03;;;;;;;6.25;3.58;;;;;;;26.02;65.34;100298.19;5529435;32;34005;-67
2022/06/29 06:27:06;;;;;;;5.53;3.42;;;;;;;25.80;64.72;100282.16;5529915;32;34654;-67
2022/06/29 06:30:09;;;;;;;11.02;4.12;;;;;;;26.01;65.45;100294.66;5530488;32;34640;-67
2022/06/29 06:33:14;;;;;;;7.50;3.30;;;;;;;25.94;63.05;100289.50;5529946;32;34136;-67
2022/06/29 06:36:17;;;;;;;6.50;3.20;;;;;;;26.17;63.56;100293.56;5530428;32;34017;-67
2022/06/29 06:39:19;;;;;;;7.35;3.75;;;;;;;26.36;63.86;100289.25;5529931;32;34734;-66
2022/06/29 06:42:24;;;;;;;6.22;3.85;;;;;;;26.18;64.97;100287.06;5529669;32;34428;-66
2022/06/29 06:45:28;;;;;;;6.55;3.30;;;;;;;26.42;63.69;100289.25;5530094;32;33952;-67
2022/06/29 06:48:30;;;;;;;6.35;3.30;;;;;;;26.46;63.52;100287.59;5529227;32;32742;-67
2022/06/29 06:51:33;;;;;;;9.55;3.80;;;;;;;26.69;62.61;100276.12;5529792;32;34794;-67
2022/06/29 06:54:36;;;;;;;8.88;3.55;;;;;;;26.83;61.62;100282.59;5529789;32;34003;-67
2022/06/29 06:57:38;;;;;;;5.87;3.25;;;;;;;26.83;62.52;100274.44;5529018;32;32482;-67
2022/06/29 07:00:42;;;;;;;8.18;3.78;;;;;;;27.11;60.60;100273.00;5529660;32;34021;-67
2022/06/29 07:03:44;;;;;;;7.75;3.20;;;;;;;27.03;61.03;100276.28;5529579;32;34768;-67
2022/06/29 07:06:48;;;;;;;6.25;3.47;;;;;;;27.36;60.03;100278.31;5529065;32;34262;-67
2022/06/29 07:09:50;;;;;;;8.75;3.37;;;;;;;27.28;60.93;100273.47;5529502;32;33972;-67
2022/06/29 07:12:53;;;;;;;6.87;3.90;;;;;;;27.49;59.27;100272.28;5529256;32;33964;-68
2022/06/29 07:15:59;;;;;;;5.87;3.28;;;;;;;27.66;58.83;100274.63;5529506;32;34144;-69
2022/06/29 07:19:02;;;;;;;5.30;3.37;;;;;;;27.92;57.62;100264.34;5529019;32;34006;-67
2022/06/29 07:22:05;;;;;;;6.68;3.58;;;;;;;27.89;58.68;100271.19;5528571;32;33539;-68
2022/06/29 07:25:09;;;;;;;7.10;3.65;;;;;;;28.06;57.41;100265.31;5530259;32;34110;-67
2022/06/29 07:28:11;;;;;;;8.05;3.53;;;;;;;28.29;56.92;100259.12;5531980;32;33989;-67
2022/06/29 07:31:14;;;;;;;6.75;3.67;;;;;;;28.64;55.06;100260.69;5531061;32;34068;-67
2022/06/29 07:34:17;;;;;;;10.82;3.78;;;;;;;28.99;54.63;100256.78;5532055;32;34093;-67
2022/06/29 07:37:20;;;;;;;10.43;3.08;;;;;;;29.05;52.92;100263.78;5531145;32;34305;-67
2022/06/29 07:40:22;;;;;;;6.18;3.60;;;;;;;29.62;50.09;100268.22;5531252;32;34047;-67
2022/06/29 07:43:26;;;;;;;7.25;3.40;;;;;;;29.87;49.33;100269.72;5531592;32;34023;-66
2022/06/29 07:46:29;;;;;;;6.65;2.97;;;;;;;30.57;47.27;100267.75;5531738;32;34014;-67
2022/06/29 07:49:32;;;;;;;5.15;3.28;;;;;;;30.63;47.08;100263.78;5531355;32;32378;-67
2022/06/29 07:52:36;;;;;;;6.22;2.97;;;;;;;31.59;45.31;100260.16;5531802;32;34107;-66
2022/06/29 07:55:39;;;;;;;5.82;3.35;;;;;;;31.33;45.98;100252.47;5531722;32;34139;-67
2022/06/29 07:58:42;;;;;;;6.40;3.00;;;;;;;32.54;42.68;100253.34;5531189;32;34523;-67
2022/06/29 08:01:45;;;;;;;6.00;2.92;;;;;;;33.37;41.48;100251.53;5531690;32;34064;-68
2022/06/29 08:04:50;;;;;;;5.80;3.05;;;;;;;33.42;40.07;100254.13;5531600;32;34481;-68
2022/06/29 08:08:09;;;;;;;;;;;;;;;33.58;38.93;100255.28;5531441;32;33879;-68
2022/06/29 08:11:12;;;;;;;4.72;2.95;;;;;;;34.20;38.68;100252.97;5530775;32;34410;-67
2022/06/29 08:14:14;;;;;;;4.93;2.70;;;;;;;34.93;37.01;100253.66;5531352;32;34065;-68
2022/06/29 08:17:18;;;;;;;9.48;2.80;;;;;;;35.25;37.47;100244.72;5531343;32;33861;-69
2022/06/29 08:20:22;;;;;;;4.15;2.70;;;;;;;35.94;35.33;100240.59;5531691;32;33966;-69
2022/06/29 08:23:26;;;;;;;5.70;2.62;;;;;;;35.98;34.44;100244.28;5531413;32;33989;-68
2022/06/29 08:26:29;;;;;;;8.88;2.40;;;;;;;35.85;34.92;100229.63;5531353;32;33865;-68
2022/06/29 08:29:54;;;;;;;5.85;2.17;;;;;;;36.46;32.85;100236.09;5530581;32;34104;-69
2022/06/29 08:32:56;;;;;;;3.37;2.17;;;;;;;37.57;30.78;100238.47;5531458;32;34263;-68
2022/06/29 08:35:59;;;;;;;3.80;2.10;;;;;;;38.19;28.23;100239.81;5530132;32;35112;-69
2022/06/29 08:39:02;;;;;;;6.97;2.10;;;;;;;38.60;28.37;100233.75;5530432;32;33973;-70
2022/06/29 08:42:06;;;;;;;4.43;2.12;;;;;;;39.21;27.86;100235.19;5518021;32;33000;-68
2022/06/29 08:45:11;;;;;;;4.60;1.98;;;;;;;38.92;27.87;100242.06;5531195;32;33897;-69
2022/06/29 08:48:16;;;;;;;2.62;2.00;;;;;;;38.40;28.95;100220.13;5530394;32;32945;-69
2022/06/29 08:51:24;;;;;;;2.70;2.12;;;;;;;39.07;27.54;100213.47;5530479;32;34822;-68
2022/06/29 08:54:30;;;;;;;3.67;1.90;;;;;;;39.03;28.44;100221.72;5530232;32;32879;-69
2022/06/29 08:57:43;;;;;;;2.53;1.95;;;;;;;40.04;27.29;100223.41;5531300;32;34403;-69
2022/06/29 09:00:49;;;;;;;4.18;2.33;;;;;;;40.15;25.65;100223.59;5517596;32;33015;-70
2022/06/29 09:03:52;;;;;;;4.40;1.90;;;;;;;40.60;25.67;100217.25;5530919;32;33965;-69
2022/06/29 09:06:57;;;;;;;4.18;2.03;;;;;;;40.75;25.17;100214.34;5531049;32;34845;-69
2022/06/29 09:10:00;;;;;;;3.50;1.70;;;;;;;40.18;24.99;100209.00;5531050;32;33923;-69
2022/06/29 09:13:05;;;;;;;5.28;2.10;;;;;;;40.69;24.37;100210.28;5531104;32;34071;-70
2022/06/29 09:16:09;;;;;;;4.72;1.90;;;;;;;41.87;24.08;100201.50;5530801;32;34562;-68
2022/06/29 09:19:12;;;;;;;7.78;2.00;;;;;;;41.90;23.10;100201.53;5531059;32;34069;-67
2022/06/29 09:22:15;;;;;;;5.03;2.37;;;;;;;41.43;23.99;100190.22;5530385;32;33153;-66
2022/06/29 09:25:27;;;;;;;3.05;1.70;;;;;;;41.35;24.67;100192.09;5529675;32;35031;-67
2022/06/29 09:28:31;;;;;;;2.72;1.73;;;;;;;41.12;23.41;100197.00;5530778;32;34202;-67
2022/06/29 09:31:34;;;;;;;6.85;2.20;;;;;;;40.89;22.70;100191.50;5517389;32;34195;-67
2022/06/29 09:34:56;;;;;;;4.68;2.00;;;;;;;40.22;24.42;100187.62;5530485;32;35018;-66
2022/06/29 09:38:20;;;;;;;3.33;1.73;;;;;;;40.53;23.67;100189.31;5530800;32;34652;-67
2022/06/29 09:41:27;;;;;;;2.53;1.73;;;;;;;42.03;22.12;100194.50;5529921;32;32800;-66
2022/06/29 09:44:30;;;;;;;7.03;1.90;;;;;;;42.47;21.38;100193.69;5530396;32;34325;-67
2022/06/29 09:47:34;;;;;;;3.65;1.80;;;;;;;43.21;21.67;100187.81;5529732;32;35038;-66
2022/06/29 09:50:37;;;;;;;3.92;2.05;;;;;;;42.90;20.88;100186.44;5530883;32;35237;-66
2022/06/29 09:53:41;;;;;;;3.35;1.87;;;;;;;42.82;21.80;100173.63;5530545;32;34211;-66
2022/06/29 09:56:49;;;;;;;2.97;1.60;;;;;;;43.29;21.69;100170.69;5529787;32;34077;-67
2022/06/29 10:03:16;;;;;;;2.72;1.48;;;;;;;42.42;22.50;100168.94;5530131;32;34506;-67
2022/06/29 10:06:19;;;;;;;2.40;1.60;;;;;;;41.82;21.47;100160.03;5529371;32;33660;-67
2022/06/29 10:09:23;;;;;;;1.67;1.55;;;;;;;42.73;21.07;100157.25;5529658;32;34462;-66
2022/06/29 10:16:49;;;;;;;3.08;1.70;;;;;;;43.08;19.28;100151.06;5530611;32;35495;-67
2022/06/29 10:20:12;;;;;;;2.83;1.58;;;;;;;42.64;20.60;100145.59;5530060;32;34290;-68
2022/06/29 10:23:47;;;;;;;5.53;1.70;;;;;;;43.51;18.95;100140.06;5529223;32;34217;-67
2022/06/29 10:26:50;;;;;;;2.97;1.52;;;;;;;43.21;17.36;100137.56;5530135;32;34255;-67
2022/06/29 10:30:20;;;;;;;5.20;1.60;;;;;;;43.78;18.62;100123.72;5530026;32;34190;-67
2022/06/29 10:33:28;;;;;;;5.07;1.50;;;;;;;44.33;17.69;100124.97;5530110;32;34973;-66
2022/06/29 10:36:57;;;;;;;8.68;1.70;;;;;;;44.23;18.86;100120.16;5529965;32;34218;-66
2022/06/29 10:40:04;;;;;;;4.65;1.87;;;;;;;45.12;17.45;100117.19;5529705;32;34913;-67
2022/06/29 10:43:20;;;;;;;3.10;1.50;;;;;;;43.81;17.95;100123.75;5516612;32;32835;-67
2022/06/29 10:46:23;;;;;;;4.03;1.93;;;;;;;43.83;18.18;100112.16;5516144;32;32985;-67
2022/06/29 10:49:26;;;;;;;6.65;1.60;;;;;;;45.13;17.78;100108.34;5529438;32;34431;-67
2022/06/29 10:52:35;;;;;;;2.42;1.60;;;;;;;45.69;16.52;100112.03;5529388;32;34399;-67
2022/06/29 10:55:44;;;;;;;2.15;1.40;;;;;;;46.58;15.65;100110.06;5528839;32;34388;-67
2022/06/29 10:58:46;;;;;;;4.70;1.62;;;;;;;46.52;15.70;100103.34;5529515;32;34578;-67
2022/06/29 11:02:11;;;;;;;3.03;1.52;;;;;;;45.39;16.11;100102.22;5531990;32;34390;-67
2022/06/29 11:05:14;;;;;;;5.53;1.70;;;;;;;45.74;16.06;100092.00;5532019;32;34212;-66
2022/06/29 11:12:01;;;;;;;3.67;1.60;;;;;;;44.71;16.77;100088.94;5531977;32;35163;-66
2022/06/29 11:18:29;;;;;;;5.03;1.80;;;;;;;46.93;15.42;100083.59;5532118;32;33653;-67
2022/06/29 11:21:32;;;;;;;2.17;1.50;;;;;;;46.57;15.58;100072.00;5531378;32;34160;-67
2022/06/29 11:24:55;;;;;;;3.33;1.52;;;;;;;46.24;15.12;100073.53;5531303;32;33650;-68
2022/06/29 11:27:58;;;;;;;3.15;1.87;;;;;;;47.81;14.61;100080.72;5532005;32;34873;-67
2022/06/29 11:31:05;;;;;;;4.37;1.60;;;;;;;46.75;14.85;100071.00;5532179;32;34117;-67
2022/06/29 11:34:08;;;;;;;2.12;1.60;;;;;;;47.14;14.99;100062.06;5531538;32;34272;-67
2022/06/29 11:37:15;;;;;;;2.97;1.70;;;;;;;47.14;14.85;100054.44;5530760;32;33229;-67
2022/06/29 11:40:34;;;;;;;2.65;1.90;;;;;;;47.79;14.80;100053.03;5518165;32;34662;-67
2022/06/29 11:43:37;;;;;;;3.97;1.70;;;;;;;48.72;13.16;100044.47;5532221;32;34205;-68
2022/06/29 11:46:44;;;;;;;7.78;1.80;;;;;;;47.23;14.23;100040.66;5531020;32;34282;-68
2022/06/29 11:49:46;;;;;;;2.53;1.70;;;;;;;47.64;14.54;100037.63;5531440;32;34817;-68
2022/06/29 11:52:50;;;;;;;3.70;2.15;;;;;;;48.11;13.65;100035.59;5531774;32;34136;-67
2022/06/29 11:55:57;;;;;;;2.53;1.40;;;;;;;48.92;13.63;100032.38;5531649;32;34770;-67
2022/06/29 11:59:05;;;;;;;4.32;1.48;;;;;;;49.22;12.97;100022.84;5530715;32;33978;-67
2022/06/29 12:02:10;;;;;;;4.10;1.70;;;;;;;50.15;13.15;100025.75;5531872;32;34336;-67
2022/06/29 12:05:13;;;;;;;2.58;1.48;;;;;;;50.31;12.43;100027.69;5531456;32;34935;-68
2022/06/29 12:08:16;;;;;;;2.75;1.50;;;;;;;49.73;12.65;100015.53;5530929;32;36357;-67
2022/06/29 12:11:19;;;;;;;5.68;1.80;;;;;;;49.51;12.46;100015.31;5530610;32;35505;-68
2022/06/29 12:14:21;;;;;;;4.30;1.50;;;;;;;49.61;12.62;100008.59;5531487;32;33541;-68
2022/06/29 12:17:24;;;;;;;6.60;1.83;;;;;;;50.17;11.63;100003.50;5531610;32;33588;-67
2022/06/29 12:20:27;;;;;;;4.12;1.70;;;;;;;46.61;13.84;99999.78;5530865;32;33196;-68
2022/06/29 12:23:40;;;;;;;2.30;1.70;;;;;;;47.62;13.56;100005.53;5531583;32;34948;-68
2022/06/29 12:26:43;;;;;;;5.43;1.70;;;;;;;47.89;14.22;99995.00;5530638;32;35434;-68
2022/06/29 12:29:47;;;;;;;2.92;1.83;;;;;;;47.56;14.11;99991.16;5530548;32;32738;-67
2022/06/29 12:32:50;;;;;;;3.70;1.70;;;;;;;48.68;13.84;99984.59;5531253;32;34318;-68
2022/06/29 12:35:54;;;;;;;3.12;1.90;;;;;;;49.39;12.92;99977.31;5517763;32;32804;-67
2022/06/29 12:38:58;;;;;;;5.60;1.70;;;;;;;50.48;12.36;99975.59;5530934;32;35601;-67
2022/06/29 12:42:03;;;;;;;2.78;1.40;;;;;;;50.91;12.27;99974.28;5530671;32;32838;-68
2022/06/29 12:45:11;;;;;;;3.25;1.60;;;;;;;49.63;12.26;99970.25;5531488;32;34175;-67
2022/06/29 12:48:19;;;;;;;2.33;1.70;;;;;;;47.31;13.54;99976.72;5531242;32;34278;-67
2022/06/29 12:51:22;;;;;;;2.00;1.70;;;;;;;47.34;14.88;99959.03;5531405;32;34910;-68
2022/06/29 12:54:26;;;;;;;3.92;1.40;;;;;;;48.21;13.07;99955.03;5531281;32;34227;-69
2022/06/29 12:57:28;;;;;;;4.47;1.60;;;;;;;46.37;13.81;99977.63;5530699;32;32652;-68
2022/06/29 13:00:34;;;;;;;1.75;1.50;;;;;;;46.46;13.72;99967.47;5530564;32;34216;-68
2022/06/29 13:03:37;;;;;;;2.10;1.70;;;;;;;45.25;14.32;99955.84;5530233;32;32612;-68
2022/06/29 13:06:40;;;;;;;7.57;1.58;;;;;;;47.87;13.08;99947.63;5530397;32;34275;-67
2022/06/29 13:09:42;;;;;;;14.23;2.05;;;;;;;48.94;12.21;99956.69;5531465;32;34133;-68
2022/06/29 13:12:45;;;;;;;4.55;1.67;;;;;;;47.87;12.74;99947.63;5531037;32;34499;-67
2022/06/29 13:15:48;;;;;;;1.75;1.50;;;;;;;48.97;12.60;99948.13;5530029;32;34277;-67
2022/06/29 13:18:51;;;;;;;3.15;1.50;;;;;;;50.16;11.81;99945.44;5531040;32;35593;-67
2022/06/29 13:21:53;;;;;;;2.42;1.48;;;;;;;49.76;12.16;99938.53;5529104;32;32987;-68
2022/06/29 13:24:56;;;;;;;9.93;2.40;;;;;;;50.79;11.15;99942.75;5530935;32;34214;-68
2022/06/29 13:27:59;;;;;;;5.45;1.92;;;;;;;48.26;12.41;99937.63;5531099;32;34264;-67
2022/06/29 13:31:02;;;;;;;4.30;1.62;;;;;;;50.36;11.39;99945.28;5531176;32;34568;-67
2022/06/29 13:34:05;;;;;;;4.12;1.73;;;;;;;50.20;12.39;99934.09;5530869;32;34222;-68
2022/06/29 13:37:08;;;;;;;3.12;1.50;;;;;;;49.70;11.91;99938.25;5530960;32;34193;-68
2022/06/29 13:40:11;;;;;;;1.55;1.35;;;;;;;49.49;12.42;99933.97;5531057;32;34784;-67
2022/06/29 13:43:14;;;;;;;4.28;1.40;;;;;;;50.37;11.75;99919.44;5530922;32;34720;-68
2022/06/29 13:46:17;;;;;;;3.08;1.52;;;;;;;50.06;11.89;99918.34;5531035;32;34151;-68
2022/06/29 13:49:23;;;;;;;6.37;1.40;;;;;;;49.85;12.06;99916.13;5530213;32;34707;-68
2022/06/29 13:52:31;;;;;;;2.60;1.60;;;;;;;49.60;11.88;99916.78;5530109;32;32733;-67
2022/06/29 13:55:34;;;;;;;3.10;1.40;;;;;;;47.39;12.86;99920.00;5530091;32;33577;-67
2022/06/29 13:58:36;;;;;;;3.12;1.90;;;;;;;48.35;12.72;99926.63;5530824;32;34172;-67
2022/06/29 14:01:39;;;;;;;3.00;1.70;;;;;;;48.87;12.73;99918.19;5531069;32;34907;-67
2022/06/29 14:04:42;;;;;;;6.25;1.48;;;;;;;49.95;11.63;99920.66;5529891;32;32937;-67
2022/06/29 14:07:45;;;;;;;4.35;1.37;;;;;;;48.62;12.95;99910.31;5530545;32;34271;-67
2022/06/29 14:11:09;;;;;;;4.97;1.95;;;;;;;50.31;11.88;99917.59;5530369;32;34932;-67
2022/06/29 14:14:11;;;;;;;2.20;1.50;;;;;;;48.28;12.56;99910.63;5530701;32;35427;-68
2022/06/29 14:17:14;;;;;;;6.12;1.50;;;;;;;47.99;13.43;99892.78;5529666;32;34149;-68
2022/06/29 14:20:19;;;;;;;3.05;1.60;;;;;;;48.40;12.63;99902.78;5529501;32;34342;-67
2022/06/29 14:23:23;;;;;;;1.65;1.40;;;;;;;49.54;12.24;99896.00;5529636;32;34018;-67
2022/06/29 14:26:26;;;;;;;1.83;1.40;;;;;;;47.49;13.12;99912.59;5529432;32;33816;-67
2022/06/29 14:29:36;;;;;;;3.87;1.73;;;;;;;46.12;14.18;99900.16;5529462;32;34788;-68
2022/06/29 14:32:41;;;;;;;5.07;1.80;;;;;;;43.89;15.98;99896.16;5529377;32;34179;-67
2022/06/29 14:35:45;;;;;;;5.93;1.50;;;;;;;43.81;16.20;99891.78;5531242;32;34226;-67
2022/06/29 14:38:47;;;;;;;3.37;1.70;;;;;;;44.60;15.23;99893.06;5532079;32;34837;-67
2022/06/29 14:41:51;;;;;;;6.30;1.98;;;;;;;47.02;14.09;99884.47;5532118;32;34241;-67